sensor_id;sensor_type;location;lat;lon;timestamp;P1;durP1;ratioP1;P2;durP2;ratioP2
21848;SDS011;11089;49.852;19.700;2022-11-11T00:00:45;29.88;;;15.00;;
21848;SDS011;11089;49.852;19.700;2022-11-11T00:03:46;33.25;;;15.50;;
21848;SDS011;11089;49.852;19.700;2022-11-11T00:06:47;31.80;;;16.35;;
21848;SDS011;11089;49.852;19.700;2022-11-11T00:09:48;26.35;;;14.63;;
21848;SDS011;11089;49.852;19.700;2022-11-11T00:12:49;27.60;;;13.27;;
21848;SDS011;11089;49.852;19.700;2022-11-11T00:15:50;26.85;;;12.50;;
21848;SDS011;11089;49.852;19.700;2022-11-11T00:18:51;27.58;;;13.57;;
21848;SDS011;11089;49.852;19.700;2022-11-11T00:22:10;25.70;;;13.93;;
21848;SDS011;11089;49.852;19.700;2022-11-11T00:25:36;28.05;;;14.38;;
21848;SDS011;11089;49.852;19.700;2022-11-11T00:28:37;30.98;;;14.98;;
21848;SDS011;11089;49.852;19.700;2022-11-11T00:31:38;30.95;;;14.45;;
21848;SDS011;11089;49.852;19.700;2022-11-11T00:34:59;33.00;;;15.40;;
21848;SDS011;11089;49.852;19.700;2022-11-11T00:38:14;34.08;;;15.52;;
21848;SDS011;11089;49.852;19.700;2022-11-11T00:41:35;29.17;;;15.70;;
21848;SDS011;11089;49.852;19.700;2022-11-11T00:44:36;29.63;;;15.23;;
21848;SDS011;11089;49.852;19.700;2022-11-11T00:47:37;29.98;;;14.80;;
21848;SDS011;11089;49.852;19.700;2022-11-11T00:50:51;25.02;;;13.73;;
21848;SDS011;11089;49.852;19.700;2022-11-11T00:53:57;28.60;;;14.57;;
21848;SDS011;11089;49.852;19.700;2022-11-11T00:56:58;28.65;;;14.57;;
21848;SDS011;11089;49.852;19.700;2022-11-11T00:59:59;27.65;;;13.88;;
21848;SDS011;11089;49.852;19.700;2022-11-11T01:03:00;25.90;;;13.45;;
21848;SDS011;11089;49.852;19.700;2022-11-11T01:06:02;26.38;;;14.10;;
21848;SDS011;11089;49.852;19.700;2022-11-11T01:09:04;29.92;;;15.27;;
21848;SDS011;11089;49.852;19.700;2022-11-11T01:12:06;29.50;;;15.07;;
21848;SDS011;11089;49.852;19.700;2022-11-11T01:15:07;24.90;;;13.75;;
21848;SDS011;11089;49.852;19.700;2022-11-11T01:18:09;32.58;;;15.00;;
21848;SDS011;11089;49.852;19.700;2022-11-11T01:21:13;29.40;;;14.93;;
21848;SDS011;11089;49.852;19.700;2022-11-11T01:24:22;36.65;;;17.45;;
21848;SDS011;11089;49.852;19.700;2022-11-11T01:27:23;35.63;;;17.85;;
21848;SDS011;11089;49.852;19.700;2022-11-11T01:30:24;38.10;;;18.05;;
21848;SDS011;11089;49.852;19.700;2022-11-11T01:33:25;38.42;;;18.13;;
21848;SDS011;11089;49.852;19.700;2022-11-11T01:36:26;35.55;;;17.63;;
21848;SDS011;11089;49.852;19.700;2022-11-11T01:39:27;32.30;;;15.48;;
21848;SDS011;11089;49.852;19.700;2022-11-11T01:42:28;30.05;;;15.63;;
21848;SDS011;11089;49.852;19.700;2022-11-11T01:48:53;35.63;;;16.80;;
21848;SDS011;11089;49.852;19.700;2022-11-11T01:55:25;36.20;;;18.08;;
21848;SDS011;11089;49.852;19.700;2022-11-11T01:58:26;38.85;;;19.60;;
21848;SDS011;11089;49.852;19.700;2022-11-11T02:01:29;34.17;;;18.02;;
21848;SDS011;11089;49.852;19.700;2022-11-11T02:04:30;34.45;;;17.55;;
21848;SDS011;11089;49.852;19.700;2022-11-11T02:07:46;36.92;;;17.58;;
21848;SDS011;11089;49.852;19.700;2022-11-11T02:10:48;35.35;;;18.95;;
21848;SDS011;11089;49.852;19.700;2022-11-11T02:13:49;31.35;;;17.42;;
21848;SDS011;11089;49.852;19.700;2022-11-11T02:17:04;30.33;;;16.65;;
21848;SDS011;11089;49.852;19.700;2022-11-11T02:20:07;33.90;;;16.50;;
21848;SDS011;11089;49.852;19.700;2022-11-11T02:26:30;31.13;;;15.80;;
21848;SDS011;11089;49.852;19.700;2022-11-11T02:29:34;30.38;;;13.25;;
21848;SDS011;11089;49.852;19.700;2022-11-11T02:32:36;27.73;;;13.23;;
21848;SDS011;11089;49.852;19.700;2022-11-11T02:35:38;25.75;;;12.63;;
21848;SDS011;11089;49.852;19.700;2022-11-11T02:38:43;25.10;;;12.18;;
21848;SDS011;11089;49.852;19.700;2022-11-11T02:41:47;24.63;;;11.90;;
21848;SDS011;11089;49.852;19.700;2022-11-11T02:44:57;26.00;;;12.95;;
21848;SDS011;11089;49.852;19.700;2022-11-11T02:47:58;25.02;;;13.23;;
21848;SDS011;11089;49.852;19.700;2022-11-11T02:50:59;26.63;;;13.43;;
21848;SDS011;11089;49.852;19.700;2022-11-11T02:54:00;24.77;;;12.65;;
21848;SDS011;11089;49.852;19.700;2022-11-11T02:57:01;23.92;;;12.80;;
21848;SDS011;11089;49.852;19.700;2022-11-11T03:00:08;25.02;;;12.32;;
21848;SDS011;11089;49.852;19.700;2022-11-11T03:03:10;24.13;;;12.70;;
21848;SDS011;11089;49.852;19.700;2022-11-11T03:06:11;24.83;;;10.90;;
21848;SDS011;11089;49.852;19.700;2022-11-11T03:09:11;22.40;;;12.40;;
21848;SDS011;11089;49.852;19.700;2022-11-11T03:12:12;22.48;;;11.73;;
21848;SDS011;11089;49.852;19.700;2022-11-11T03:15:14;21.80;;;11.68;;
21848;SDS011;11089;49.852;19.700;2022-11-11T03:18:15;20.50;;;10.63;;
21848;SDS011;11089;49.852;19.700;2022-11-11T03:21:15;20.17;;;10.43;;
21848;SDS011;11089;49.852;19.700;2022-11-11T03:24:16;18.88;;;9.77;;
21848;SDS011;11089;49.852;19.700;2022-11-11T03:27:17;19.20;;;9.25;;
21848;SDS011;11089;49.852;19.700;2022-11-11T03:30:18;19.58;;;10.23;;
21848;SDS011;11089;49.852;19.700;2022-11-11T03:33:19;17.15;;;9.30;;
21848;SDS011;11089;49.852;19.700;2022-11-11T03:36:20;19.42;;;9.82;;
21848;SDS011;11089;49.852;19.700;2022-11-11T03:39:41;16.63;;;8.65;;
21848;SDS011;11089;49.852;19.700;2022-11-11T03:42:42;17.17;;;10.13;;
21848;SDS011;11089;49.852;19.700;2022-11-11T03:45:43;17.38;;;9.05;;
21848;SDS011;11089;49.852;19.700;2022-11-11T03:48:45;21.85;;;10.32;;
21848;SDS011;11089;49.852;19.700;2022-11-11T03:51:46;21.92;;;9.15;;
21848;SDS011;11089;49.852;19.700;2022-11-11T03:54:46;17.25;;;8.68;;
21848;SDS011;11089;49.852;19.700;2022-11-11T03:57:47;17.42;;;9.43;;
21848;SDS011;11089;49.852;19.700;2022-11-11T04:00:49;19.92;;;9.68;;
21848;SDS011;11089;49.852;19.700;2022-11-11T04:03:50;17.15;;;9.15;;
21848;SDS011;11089;49.852;19.700;2022-11-11T04:07:05;19.10;;;9.27;;
21848;SDS011;11089;49.852;19.700;2022-11-11T04:10:22;17.80;;;9.48;;
21848;SDS011;11089;49.852;19.700;2022-11-11T04:13:23;15.82;;;8.80;;
21848;SDS011;11089;49.852;19.700;2022-11-11T04:16:39;16.88;;;8.85;;
21848;SDS011;11089;49.852;19.700;2022-11-11T04:19:40;14.20;;;8.50;;
21848;SDS011;11089;49.852;19.700;2022-11-11T04:22:55;14.32;;;8.43;;
21848;SDS011;11089;49.852;19.700;2022-11-11T04:25:59;14.52;;;7.80;;
21848;SDS011;11089;49.852;19.700;2022-11-11T04:29:00;13.55;;;7.57;;
21848;SDS011;11089;49.852;19.700;2022-11-11T04:32:16;16.70;;;8.15;;
21848;SDS011;11089;49.852;19.700;2022-11-11T04:35:31;16.27;;;7.75;;
21848;SDS011;11089;49.852;19.700;2022-11-11T04:38:32;14.18;;;7.57;;
21848;SDS011;11089;49.852;19.700;2022-11-11T04:41:46;16.02;;;8.45;;
21848;SDS011;11089;49.852;19.700;2022-11-11T04:44:47;17.33;;;8.10;;
21848;SDS011;11089;49.852;19.700;2022-11-11T04:48:03;15.45;;;7.90;;
21848;SDS011;11089;49.852;19.700;2022-11-11T04:51:06;14.40;;;7.47;;
21848;SDS011;11089;49.852;19.700;2022-11-11T04:54:06;15.02;;;7.93;;
21848;SDS011;11089;49.852;19.700;2022-11-11T04:57:07;15.25;;;7.40;;
21848;SDS011;11089;49.852;19.700;2022-11-11T05:00:09;14.75;;;7.38;;
21848;SDS011;11089;49.852;19.700;2022-11-11T05:03:13;13.52;;;6.88;;
21848;SDS011;11089;49.852;19.700;2022-11-11T05:06:15;14.85;;;7.05;;
21848;SDS011;11089;49.852;19.700;2022-11-11T05:09:29;13.13;;;6.50;;
21848;SDS011;11089;49.852;19.700;2022-11-11T05:12:30;10.38;;;6.07;;
21848;SDS011;11089;49.852;19.700;2022-11-11T05:15:31;12.68;;;6.90;;
21848;SDS011;11089;49.852;19.700;2022-11-11T05:18:46;11.75;;;6.25;;
21848;SDS011;11089;49.852;19.700;2022-11-11T05:22:04;12.30;;;7.07;;
21848;SDS011;11089;49.852;19.700;2022-11-11T05:25:09;14.23;;;6.68;;
21848;SDS011;11089;49.852;19.700;2022-11-11T05:28:25;11.02;;;6.30;;
21848;SDS011;11089;49.852;19.700;2022-11-11T05:31:26;11.63;;;6.03;;
21848;SDS011;11089;49.852;19.700;2022-11-11T05:34:28;12.15;;;6.90;;
21848;SDS011;11089;49.852;19.700;2022-11-11T05:37:29;9.80;;;5.85;;
21848;SDS011;11089;49.852;19.700;2022-11-11T05:40:30;12.23;;;6.15;;
21848;SDS011;11089;49.852;19.700;2022-11-11T05:43:31;13.43;;;6.93;;
21848;SDS011;11089;49.852;19.700;2022-11-11T05:46:32;11.95;;;6.70;;
21848;SDS011;11089;49.852;19.700;2022-11-11T05:49:33;13.10;;;6.85;;
21848;SDS011;11089;49.852;19.700;2022-11-11T05:52:34;15.65;;;6.22;;
21848;SDS011;11089;49.852;19.700;2022-11-11T05:55:35;14.85;;;6.63;;
21848;SDS011;11089;49.852;19.700;2022-11-11T05:58:35;9.80;;;6.03;;
21848;SDS011;11089;49.852;19.700;2022-11-11T06:01:36;9.68;;;6.07;;
21848;SDS011;11089;49.852;19.700;2022-11-11T06:04:37;12.32;;;6.43;;
21848;SDS011;11089;49.852;19.700;2022-11-11T06:07:38;15.15;;;7.72;;
21848;SDS011;11089;49.852;19.700;2022-11-11T06:10:39;14.80;;;7.22;;
21848;SDS011;11089;49.852;19.700;2022-11-11T06:13:42;13.63;;;7.90;;
21848;SDS011;11089;49.852;19.700;2022-11-11T06:16:43;15.05;;;6.38;;
21848;SDS011;11089;49.852;19.700;2022-11-11T06:19:43;10.50;;;6.03;;
21848;SDS011;11089;49.852;19.700;2022-11-11T06:22:44;17.40;;;6.13;;
21848;SDS011;11089;49.852;19.700;2022-11-11T06:25:58;9.82;;;5.35;;
21848;SDS011;11089;49.852;19.700;2022-11-11T06:29:12;13.52;;;5.70;;
21848;SDS011;11089;49.852;19.700;2022-11-11T06:32:13;13.85;;;6.40;;
21848;SDS011;11089;49.852;19.700;2022-11-11T06:35:14;12.13;;;6.47;;
21848;SDS011;11089;49.852;19.700;2022-11-11T06:38:15;10.95;;;5.20;;
21848;SDS011;11089;49.852;19.700;2022-11-11T06:41:17;11.75;;;5.55;;
21848;SDS011;11089;49.852;19.700;2022-11-11T06:44:19;9.05;;;4.53;;
21848;SDS011;11089;49.852;19.700;2022-11-11T06:47:20;9.77;;;4.47;;
21848;SDS011;11089;49.852;19.700;2022-11-11T06:50:21;11.90;;;5.75;;
21848;SDS011;11089;49.852;19.700;2022-11-11T06:53:22;9.10;;;5.40;;
21848;SDS011;11089;49.852;19.700;2022-11-11T06:56:23;11.10;;;5.78;;
21848;SDS011;11089;49.852;19.700;2022-11-11T06:59:24;8.40;;;5.43;;
21848;SDS011;11089;49.852;19.700;2022-11-11T07:02:25;10.30;;;5.55;;
21848;SDS011;11089;49.852;19.700;2022-11-11T07:05:25;12.38;;;5.10;;
21848;SDS011;11089;49.852;19.700;2022-11-11T07:08:26;8.70;;;5.13;;
21848;SDS011;11089;49.852;19.700;2022-11-11T07:11:28;10.80;;;5.82;;
21848;SDS011;11089;49.852;19.700;2022-11-11T07:14:29;16.52;;;6.93;;
21848;SDS011;11089;49.852;19.700;2022-11-11T07:17:30;10.02;;;5.40;;
21848;SDS011;11089;49.852;19.700;2022-11-11T07:20:31;13.20;;;5.90;;
21848;SDS011;11089;49.852;19.700;2022-11-11T07:23:32;11.77;;;5.55;;
21848;SDS011;11089;49.852;19.700;2022-11-11T07:26:33;10.38;;;5.75;;
21848;SDS011;11089;49.852;19.700;2022-11-11T07:29:34;9.63;;;4.97;;
21848;SDS011;11089;49.852;19.700;2022-11-11T07:32:35;7.72;;;5.22;;
21848;SDS011;11089;49.852;19.700;2022-11-11T07:35:36;9.65;;;5.00;;
21848;SDS011;11089;49.852;19.700;2022-11-11T07:38:37;9.10;;;5.22;;
21848;SDS011;11089;49.852;19.700;2022-11-11T07:41:38;8.32;;;5.03;;
21848;SDS011;11089;49.852;19.700;2022-11-11T07:44:39;9.15;;;5.10;;
21848;SDS011;11089;49.852;19.700;2022-11-11T07:47:43;9.93;;;5.47;;
21848;SDS011;11089;49.852;19.700;2022-11-11T07:50:44;8.70;;;5.20;;
21848;SDS011;11089;49.852;19.700;2022-11-11T07:53:45;13.52;;;5.95;;
21848;SDS011;11089;49.852;19.700;2022-11-11T07:56:46;14.93;;;6.65;;
21848;SDS011;11089;49.852;19.700;2022-11-11T07:59:47;11.38;;;6.47;;
21848;SDS011;11089;49.852;19.700;2022-11-11T08:02:48;13.30;;;6.03;;
21848;SDS011;11089;49.852;19.700;2022-11-11T08:05:50;12.07;;;6.05;;
21848;SDS011;11089;49.852;19.700;2022-11-11T08:08:51;9.50;;;5.70;;
21848;SDS011;11089;49.852;19.700;2022-11-11T08:11:52;10.02;;;5.47;;
21848;SDS011;11089;49.852;19.700;2022-11-11T08:15:06;9.10;;;5.25;;
21848;SDS011;11089;49.852;19.700;2022-11-11T08:18:08;11.57;;;4.95;;
21848;SDS011;11089;49.852;19.700;2022-11-11T08:21:09;7.25;;;4.45;;
21848;SDS011;11089;49.852;19.700;2022-11-11T08:24:11;9.52;;;5.15;;
21848;SDS011;11089;49.852;19.700;2022-11-11T08:27:11;9.27;;;4.82;;
21848;SDS011;11089;49.852;19.700;2022-11-11T08:30:13;7.28;;;4.80;;
21848;SDS011;11089;49.852;19.700;2022-11-11T08:33:14;7.57;;;4.60;;
21848;SDS011;11089;49.852;19.700;2022-11-11T08:36:15;6.07;;;3.50;;
21848;SDS011;11089;49.852;19.700;2022-11-11T08:39:16;8.32;;;3.92;;
21848;SDS011;11089;49.852;19.700;2022-11-11T08:42:17;7.50;;;4.38;;
21848;SDS011;11089;49.852;19.700;2022-11-11T08:45:18;8.02;;;4.05;;
21848;SDS011;11089;49.852;19.700;2022-11-11T08:48:19;7.38;;;3.90;;
21848;SDS011;11089;49.852;19.700;2022-11-11T08:51:20;9.82;;;4.00;;
21848;SDS011;11089;49.852;19.700;2022-11-11T08:54:21;6.95;;;3.45;;
21848;SDS011;11089;49.852;19.700;2022-11-11T08:57:22;10.98;;;4.10;;
21848;SDS011;11089;49.852;19.700;2022-11-11T09:00:23;8.80;;;4.18;;
21848;SDS011;11089;49.852;19.700;2022-11-11T09:03:23;8.90;;;4.45;;
21848;SDS011;11089;49.852;19.700;2022-11-11T09:06:24;11.57;;;4.78;;
21848;SDS011;11089;49.852;19.700;2022-11-11T09:09:25;7.82;;;3.95;;
21848;SDS011;11089;49.852;19.700;2022-11-11T09:12:26;8.00;;;4.07;;
21848;SDS011;11089;49.852;19.700;2022-11-11T09:15:27;9.80;;;4.47;;
21848;SDS011;11089;49.852;19.700;2022-11-11T09:18:29;9.40;;;5.20;;
21848;SDS011;11089;49.852;19.700;2022-11-11T09:21:30;9.63;;;4.88;;
21848;SDS011;11089;49.852;19.700;2022-11-11T09:24:31;6.68;;;4.10;;
21848;SDS011;11089;49.852;19.700;2022-11-11T09:27:32;9.32;;;4.65;;
21848;SDS011;11089;49.852;19.700;2022-11-11T09:30:33;11.55;;;4.93;;
21848;SDS011;11089;49.852;19.700;2022-11-11T09:33:34;18.77;;;6.00;;
21848;SDS011;11089;49.852;19.700;2022-11-11T09:36:35;7.63;;;4.00;;
21848;SDS011;11089;49.852;19.700;2022-11-11T09:39:36;8.05;;;4.53;;
21848;SDS011;11089;49.852;19.700;2022-11-11T09:42:38;8.18;;;3.75;;
21848;SDS011;11089;49.852;19.700;2022-11-11T09:52:11;12.15;;;7.30;;
21848;SDS011;11089;49.852;19.700;2022-11-11T09:55:22;8.63;;;5.43;;
21848;SDS011;11089;49.852;19.700;2022-11-11T10:01:49;8.60;;;4.88;;
21848;SDS011;11089;49.852;19.700;2022-11-11T10:04:56;8.48;;;4.63;;
21848;SDS011;11089;49.852;19.700;2022-11-11T10:08:08;11.77;;;4.97;;
21848;SDS011;11089;49.852;19.700;2022-11-11T10:14:38;10.70;;;5.63;;
21848;SDS011;11089;49.852;19.700;2022-11-11T10:21:18;7.97;;;3.47;;
21848;SDS011;11089;49.852;19.700;2022-11-11T10:24:32;5.95;;;3.42;;
21848;SDS011;11089;49.852;19.700;2022-11-11T10:27:42;12.55;;;3.30;;
21848;SDS011;11089;49.852;19.700;2022-11-11T10:30:45;6.50;;;3.60;;
21848;SDS011;11089;49.852;19.700;2022-11-11T10:33:50;8.73;;;3.70;;
21848;SDS011;11089;49.852;19.700;2022-11-11T10:36:54;8.88;;;4.47;;
21848;SDS011;11089;49.852;19.700;2022-11-11T10:46:27;7.38;;;4.10;;
21848;SDS011;11089;49.852;19.700;2022-11-11T10:49:39;4.97;;;3.20;;
21848;SDS011;11089;49.852;19.700;2022-11-11T10:56:18;7.65;;;5.00;;
21848;SDS011;11089;49.852;19.700;2022-11-11T11:02:26;11.93;;;6.80;;
21848;SDS011;11089;49.852;19.700;2022-11-11T11:05:45;10.45;;;5.68;;
21848;SDS011;11089;49.852;19.700;2022-11-11T11:08:52;53.58;;;18.98;;
21848;SDS011;11089;49.852;19.700;2022-11-11T11:15:24;12.38;;;6.63;;
21848;SDS011;11089;49.852;19.700;2022-11-11T11:18:27;21.15;;;8.95;;
21848;SDS011;11089;49.852;19.700;2022-11-11T11:21:38;12.07;;;6.95;;
21848;SDS011;11089;49.852;19.700;2022-11-11T11:24:52;14.38;;;7.30;;
21848;SDS011;11089;49.852;19.700;2022-11-11T11:28:11;16.15;;;8.32;;
21848;SDS011;11089;49.852;19.700;2022-11-11T11:31:13;11.95;;;6.90;;
21848;SDS011;11089;49.852;19.700;2022-11-11T11:34:14;10.90;;;5.97;;
21848;SDS011;11089;49.852;19.700;2022-11-11T11:37:15;9.30;;;5.45;;
21848;SDS011;11089;49.852;19.700;2022-11-11T11:40:18;11.43;;;5.70;;
21848;SDS011;11089;49.852;19.700;2022-11-11T11:43:25;8.90;;;5.30;;
21848;SDS011;11089;49.852;19.700;2022-11-11T11:59:36;10.82;;;6.00;;
21848;SDS011;11089;49.852;19.700;2022-11-11T12:03:45;9.52;;;6.10;;
21848;SDS011;11089;49.852;19.700;2022-11-11T12:06:40;10.57;;;5.05;;
21848;SDS011;11089;49.852;19.700;2022-11-11T12:13:11;8.90;;;5.13;;
21848;SDS011;11089;49.852;19.700;2022-11-11T12:16:25;10.43;;;5.90;;
21848;SDS011;11089;49.852;19.700;2022-11-11T12:42:47;11.18;;;6.47;;
21848;SDS011;11089;49.852;19.700;2022-11-11T12:52:55;12.27;;;7.10;;
21848;SDS011;11089;49.852;19.700;2022-11-11T13:09:39;11.18;;;6.80;;
21848;SDS011;11089;49.852;19.700;2022-11-11T13:13:04;13.13;;;6.80;;
21848;SDS011;11089;49.852;19.700;2022-11-11T13:16:22;11.45;;;6.50;;
21848;SDS011;11089;49.852;19.700;2022-11-11T13:19:29;13.63;;;7.60;;
21848;SDS011;11089;49.852;19.700;2022-11-11T13:22:37;14.18;;;7.93;;
21848;SDS011;11089;49.852;19.700;2022-11-11T13:25:39;11.90;;;6.38;;
21848;SDS011;11089;49.852;19.700;2022-11-11T13:28:46;14.65;;;7.47;;
21848;SDS011;11089;49.852;19.700;2022-11-11T13:31:50;13.43;;;6.50;;
21848;SDS011;11089;49.852;19.700;2022-11-11T13:34:53;18.00;;;8.52;;
21848;SDS011;11089;49.852;19.700;2022-11-11T13:37:54;17.70;;;9.35;;
21848;SDS011;11089;49.852;19.700;2022-11-11T13:40:57;18.52;;;9.68;;
21848;SDS011;11089;49.852;19.700;2022-11-11T13:44:02;15.07;;;9.80;;
21848;SDS011;11089;49.852;19.700;2022-11-11T13:47:07;14.80;;;8.82;;
21848;SDS011;11089;49.852;19.700;2022-11-11T13:50:22;20.67;;;11.10;;
21848;SDS011;11089;49.852;19.700;2022-11-11T13:53:31;17.55;;;10.30;;
21848;SDS011;11089;49.852;19.700;2022-11-11T13:56:42;18.95;;;9.88;;
21848;SDS011;11089;49.852;19.700;2022-11-11T13:59:57;19.60;;;10.82;;
21848;SDS011;11089;49.852;19.700;2022-11-11T14:10:02;19.00;;;10.27;;
21848;SDS011;11089;49.852;19.700;2022-11-11T14:19:37;17.98;;;9.73;;
21848;SDS011;11089;49.852;19.700;2022-11-11T14:22:38;22.77;;;11.13;;
21848;SDS011;11089;49.852;19.700;2022-11-11T14:25:39;18.98;;;9.63;;
21848;SDS011;11089;49.852;19.700;2022-11-11T14:29:00;18.80;;;9.32;;
21848;SDS011;11089;49.852;19.700;2022-11-11T14:32:06;17.13;;;9.63;;
21848;SDS011;11089;49.852;19.700;2022-11-11T14:35:35;16.02;;;8.20;;
21848;SDS011;11089;49.852;19.700;2022-11-11T14:38:46;14.25;;;7.57;;
21848;SDS011;11089;49.852;19.700;2022-11-11T14:42:03;20.23;;;10.80;;
21848;SDS011;11089;49.852;19.700;2022-11-11T14:51:58;17.60;;;9.13;;
21848;SDS011;11089;49.852;19.700;2022-11-11T15:01:18;18.02;;;8.85;;
21848;SDS011;11089;49.852;19.700;2022-11-11T15:04:21;14.27;;;7.97;;
21848;SDS011;11089;49.852;19.700;2022-11-11T15:07:27;15.25;;;7.82;;
21848;SDS011;11089;49.852;19.700;2022-11-11T15:31:34;16.42;;;7.07;;
21848;SDS011;11089;49.852;19.700;2022-11-11T15:37:38;18.17;;;7.88;;
21848;SDS011;11089;49.852;19.700;2022-11-11T15:40:50;18.48;;;9.27;;
21848;SDS011;11089;49.852;19.700;2022-11-11T15:43:59;24.80;;;12.15;;
21848;SDS011;11089;49.852;19.700;2022-11-11T15:47:00;28.85;;;12.40;;
21848;SDS011;11089;49.852;19.700;2022-11-11T15:50:03;24.88;;;12.60;;
21848;SDS011;11089;49.852;19.700;2022-11-11T15:53:20;30.90;;;16.45;;
21848;SDS011;11089;49.852;19.700;2022-11-11T15:56:28;37.75;;;16.70;;
21848;SDS011;11089;49.852;19.700;2022-11-11T15:59:31;26.95;;;13.98;;
21848;SDS011;11089;49.852;19.700;2022-11-11T16:02:35;27.58;;;13.20;;
21848;SDS011;11089;49.852;19.700;2022-11-11T16:05:41;19.65;;;11.07;;
21848;SDS011;11089;49.852;19.700;2022-11-11T16:08:44;25.42;;;12.68;;
21848;SDS011;11089;49.852;19.700;2022-11-11T16:11:50;34.72;;;16.48;;
21848;SDS011;11089;49.852;19.700;2022-11-11T16:14:55;32.70;;;16.88;;
21848;SDS011;11089;49.852;19.700;2022-11-11T16:18:00;37.72;;;19.13;;
21848;SDS011;11089;49.852;19.700;2022-11-11T16:21:12;31.65;;;16.38;;
21848;SDS011;11089;49.852;19.700;2022-11-11T16:24:27;41.10;;;19.88;;
21848;SDS011;11089;49.852;19.700;2022-11-11T16:27:31;50.55;;;25.38;;
21848;SDS011;11089;49.852;19.700;2022-11-11T16:30:33;50.90;;;26.30;;
21848;SDS011;11089;49.852;19.700;2022-11-11T16:33:36;42.65;;;23.45;;
21848;SDS011;11089;49.852;19.700;2022-11-11T16:36:56;51.88;;;24.85;;
21848;SDS011;11089;49.852;19.700;2022-11-11T16:43:29;33.65;;;16.58;;
21848;SDS011;11089;49.852;19.700;2022-11-11T16:49:39;37.38;;;17.45;;
21848;SDS011;11089;49.852;19.700;2022-11-11T16:52:47;36.20;;;17.90;;
21848;SDS011;11089;49.852;19.700;2022-11-11T16:55:56;33.08;;;16.55;;
21848;SDS011;11089;49.852;19.700;2022-11-11T16:59:07;27.77;;;13.65;;
21848;SDS011;11089;49.852;19.700;2022-11-11T17:02:14;24.60;;;12.05;;
21848;SDS011;11089;49.852;19.700;2022-11-11T17:05:19;24.67;;;12.13;;
21848;SDS011;11089;49.852;19.700;2022-11-11T17:08:47;26.25;;;12.32;;
21848;SDS011;11089;49.852;19.700;2022-11-11T17:11:48;45.78;;;19.48;;
21848;SDS011;11089;49.852;19.700;2022-11-11T17:14:49;31.23;;;14.52;;
21848;SDS011;11089;49.852;19.700;2022-11-11T17:17:50;39.63;;;19.20;;
21848;SDS011;11089;49.852;19.700;2022-11-11T17:20:51;31.55;;;15.57;;
21848;SDS011;11089;49.852;19.700;2022-11-11T17:23:52;36.95;;;17.08;;
21848;SDS011;11089;49.852;19.700;2022-11-11T17:26:53;34.00;;;17.23;;
21848;SDS011;11089;49.852;19.700;2022-11-11T17:29:55;38.53;;;19.00;;
21848;SDS011;11089;49.852;19.700;2022-11-11T17:32:55;37.17;;;17.73;;
21848;SDS011;11089;49.852;19.700;2022-11-11T17:35:56;72.25;;;33.20;;
21848;SDS011;11089;49.852;19.700;2022-11-11T17:38:58;30.88;;;14.98;;
21848;SDS011;11089;49.852;19.700;2022-11-11T17:41:58;24.15;;;11.65;;
21848;SDS011;11089;49.852;19.700;2022-11-11T17:44:59;23.33;;;11.98;;
21848;SDS011;11089;49.852;19.700;2022-11-11T17:48:00;40.80;;;21.52;;
21848;SDS011;11089;49.852;19.700;2022-11-11T17:51:02;24.73;;;12.10;;
21848;SDS011;11089;49.852;19.700;2022-11-11T17:54:08;27.08;;;12.27;;
21848;SDS011;11089;49.852;19.700;2022-11-11T17:57:09;25.38;;;12.55;;
21848;SDS011;11089;49.852;19.700;2022-11-11T18:00:10;26.67;;;13.25;;
21848;SDS011;11089;49.852;19.700;2022-11-11T18:03:12;36.33;;;17.73;;
21848;SDS011;11089;49.852;19.700;2022-11-11T18:06:13;42.50;;;19.42;;
21848;SDS011;11089;49.852;19.700;2022-11-11T18:09:14;38.22;;;19.05;;
21848;SDS011;11089;49.852;19.700;2022-11-11T18:12:15;44.38;;;19.25;;
21848;SDS011;11089;49.852;19.700;2022-11-11T18:15:15;39.63;;;18.80;;
21848;SDS011;11089;49.852;19.700;2022-11-11T18:18:16;42.35;;;20.20;;
21848;SDS011;11089;49.852;19.700;2022-11-11T18:21:17;31.63;;;14.52;;
21848;SDS011;11089;49.852;19.700;2022-11-11T18:24:20;38.55;;;17.35;;
21848;SDS011;11089;49.852;19.700;2022-11-11T18:27:21;32.17;;;16.80;;
21848;SDS011;11089;49.852;19.700;2022-11-11T18:30:22;52.35;;;22.95;;
21848;SDS011;11089;49.852;19.700;2022-11-11T18:33:23;40.90;;;17.67;;
21848;SDS011;11089;49.852;19.700;2022-11-11T18:36:24;25.48;;;12.55;;
21848;SDS011;11089;49.852;19.700;2022-11-11T18:39:25;31.33;;;13.05;;
21848;SDS011;11089;49.852;19.700;2022-11-11T18:42:26;26.02;;;13.55;;
21848;SDS011;11089;49.852;19.700;2022-11-11T18:45:27;25.20;;;12.52;;
21848;SDS011;11089;49.852;19.700;2022-11-11T18:48:28;30.63;;;14.00;;
21848;SDS011;11089;49.852;19.700;2022-11-11T18:51:29;23.33;;;12.80;;
21848;SDS011;11089;49.852;19.700;2022-11-11T18:54:33;29.05;;;12.75;;
21848;SDS011;11089;49.852;19.700;2022-11-11T18:57:34;30.63;;;13.75;;
21848;SDS011;11089;49.852;19.700;2022-11-11T19:00:35;24.13;;;11.85;;
21848;SDS011;11089;49.852;19.700;2022-11-11T19:03:36;46.22;;;20.33;;
21848;SDS011;11089;49.852;19.700;2022-11-11T19:06:39;26.25;;;13.20;;
21848;SDS011;11089;49.852;19.700;2022-11-11T19:09:40;26.73;;;13.32;;
21848;SDS011;11089;49.852;19.700;2022-11-11T19:12:41;37.38;;;16.63;;
21848;SDS011;11089;49.852;19.700;2022-11-11T19:15:42;35.75;;;15.85;;
21848;SDS011;11089;49.852;19.700;2022-11-11T19:18:43;30.02;;;14.45;;
21848;SDS011;11089;49.852;19.700;2022-11-11T19:21:44;26.20;;;12.65;;
21848;SDS011;11089;49.852;19.700;2022-11-11T19:24:45;25.90;;;13.07;;
21848;SDS011;11089;49.852;19.700;2022-11-11T19:27:46;26.05;;;12.30;;
21848;SDS011;11089;49.852;19.700;2022-11-11T19:30:47;26.48;;;11.68;;
21848;SDS011;11089;49.852;19.700;2022-11-11T19:33:48;23.73;;;11.38;;
21848;SDS011;11089;49.852;19.700;2022-11-11T19:36:50;21.55;;;11.05;;
21848;SDS011;11089;49.852;19.700;2022-11-11T19:39:51;18.70;;;10.05;;
21848;SDS011;11089;49.852;19.700;2022-11-11T19:42:52;17.85;;;10.15;;
21848;SDS011;11089;49.852;19.700;2022-11-11T19:45:53;23.70;;;11.23;;
21848;SDS011;11089;49.852;19.700;2022-11-11T19:48:57;27.85;;;14.38;;
21848;SDS011;11089;49.852;19.700;2022-11-11T19:51:59;29.33;;;14.60;;
21848;SDS011;11089;49.852;19.700;2022-11-11T19:55:00;38.05;;;17.75;;
21848;SDS011;11089;49.852;19.700;2022-11-11T19:58:01;40.33;;;17.10;;
21848;SDS011;11089;49.852;19.700;2022-11-11T20:01:06;32.85;;;14.40;;
21848;SDS011;11089;49.852;19.700;2022-11-11T20:04:26;30.42;;;13.70;;
21848;SDS011;11089;49.852;19.700;2022-11-11T20:07:28;28.15;;;13.70;;
21848;SDS011;11089;49.852;19.700;2022-11-11T20:10:34;25.45;;;13.30;;
21848;SDS011;11089;49.852;19.700;2022-11-11T20:13:38;31.63;;;14.50;;
21848;SDS011;11089;49.852;19.700;2022-11-11T20:16:39;31.88;;;14.50;;
21848;SDS011;11089;49.852;19.700;2022-11-11T20:19:40;39.30;;;15.25;;
21848;SDS011;11089;49.852;19.700;2022-11-11T20:22:42;29.00;;;13.95;;
21848;SDS011;11089;49.852;19.700;2022-11-11T20:25:43;30.55;;;13.85;;
21848;SDS011;11089;49.852;19.700;2022-11-11T20:28:44;30.38;;;15.02;;
21848;SDS011;11089;49.852;19.700;2022-11-11T20:31:45;27.42;;;13.10;;
21848;SDS011;11089;49.852;19.700;2022-11-11T20:34:46;27.35;;;12.77;;